LTBJ/ADB METAR and TAF weather

Enter ICAO airport designator
Station Type Date Time Source
LTBJ METAR 2021/07/26 15:50 UTC NOAA

LTBJ 261550Z 33014KT CAVOK 33/16 Q1012 NOSIG


Station Type Date Time Source
LTBJ Decoded METAR 2021/07/26 15:50 UTC NOAA

Izmir / Adnan Menderes, Turkey (LTBJ) 38-16N 027-09E 120M
Jul 26, 2021 - 11:50 AM EDT / 2021.07.26 1550 UTC
Wind: from the NNW (330 degrees) at 16 MPH (14 KT):0
Visibility: greater than 7 mile(s):0
Temperature: 91 F (33 C)
Dew Point: 60 F (16 C)
Relative Humidity: 36%
Pressure (altimeter): 29.88 in. Hg (1012 hPa)
ob: LTBJ 261550Z 33014KT CAVOK 33/16 Q1012 NOSIG
cycle: 16

Station Type Date Time Source
LTBJ TAF 2021/07/26 12:03 UTC NOAA

TAF LTBJ 261040Z 2612/2712 36014KT CAVOK
BECMG 2612/2615 01020G30KT
BECMG 2620/2623 35012KT
BECMG 2709/2712 01018G28KT

Example: see airport list